Time;durP1;ratioP1;P1;durP2;ratioP2;P2;SDS_P1;SDS_P2;PMS_P1;PMS_P2;Temp;Humidity;BMP_temperature;BMP_pressure;BME280_temperature;BME280_humidity;BME280_pressure;Samples;Min_cycle;Max_cycle;Signal;HPM_P1;HPM_P2
2023/06/05 00:00:22;;;;;;;8.43;5.05;;;19.20;99.90;;;;;;4882560;29;20059;-79
2023/06/05 00:02:51;;;;;;;8.77;5.50;;;19.20;99.90;;;;;;4887601;29;20152;-78
2023/06/05 00:05:21;;;;;;;9.20;5.03;;;19.20;99.90;;;;;;4879604;29;20060;-76
2023/06/05 00:07:55;;;;;;;8.82;5.07;;;19.10;99.90;;;;;;4862994;29;20045;-74
2023/06/05 00:10:32;;;;;;;7.88;4.82;;;19.00;99.90;;;;;;4874588;29;20061;-77
2023/06/05 00:13:00;;;;;;;8.27;5.25;;;18.70;99.90;;;;;;4882158;29;20105;-76
2023/06/05 00:19:06;;;;;;;9.40;5.10;;;18.80;99.90;;;;;;4872837;29;20514;-74
2023/06/05 00:21:36;;;;;;;7.10;4.65;;;18.80;99.90;;;;;;4877616;29;20061;-78
2023/06/05 00:24:51;;;;;;;8.10;5.63;;;18.80;99.90;;;;;;4867598;29;20160;-71
2023/06/05 00:27:40;;;;;;;12.02;5.60;;;18.80;99.90;;;;;;4852276;29;20057;-76
2023/06/05 00:30:09;;;;;;;10.05;5.88;;;18.60;99.90;;;;;;4866570;29;20151;-77
2023/06/05 00:32:37;;;;;;;11.40;6.38;;;18.70;99.90;;;;;;4853582;29;20056;-75
2023/06/05 00:35:07;;;;;;;10.87;6.17;;;18.70;99.90;;;;;;4875175;29;20080;-78
2023/06/05 00:37:34;;;;;;;10.05;6.82;;;18.70;99.90;;;;;;4873586;29;20288;-75
2023/06/05 00:40:02;;;;;;;12.90;6.72;;;18.70;99.90;;;;;;4875448;29;20061;-76
2023/06/05 00:42:31;;;;;;;11.77;7.20;;;18.70;99.90;;;;;;4878973;29;20057;-75
2023/06/05 00:45:05;;;;;;;12.90;7.30;;;18.80;99.90;;;;;;4868373;29;20129;-73
2023/06/05 00:47:51;;;;;;;13.48;7.60;;;18.70;99.90;;;;;;4880871;29;20049;-79
2023/06/05 00:50:21;;;;;;;16.20;7.65;;;18.70;99.90;;;;;;4883899;29;20114;-79
2023/06/05 00:52:50;;;;;;;13.63;8.18;;;18.60;99.90;;;;;;4884024;29;20116;-76
2023/06/05 00:55:18;;;;;;;16.05;7.63;;;18.70;99.90;;;;;;4882494;29;20140;-76
2023/06/05 00:57:45;;;;;;;13.95;6.80;;;18.60;99.90;;;;;;4911054;29;20107;-76
2023/06/05 01:00:14;;;;;;;14.15;7.35;;;18.50;99.90;;;;;;4924859;29;20058;-77
2023/06/05 01:02:43;;;;;;;10.40;6.63;;;18.60;99.90;;;;;;4888892;29;20071;-77
2023/06/05 01:05:33;;;;;;;12.13;7.20;;;18.50;99.90;;;;;;4911372;29;20063;-75
2023/06/05 01:08:12;;;;;;;11.30;7.18;;;18.40;99.90;;;;;;4872441;29;20143;-74
2023/06/05 01:11:00;;;;;;;11.45;6.30;;;18.40;99.90;;;;;;4905088;23;20052;-72
2023/06/05 01:14:16;;;;;;;9.23;6.15;;;18.50;99.90;;;;;;4897188;29;20048;-76
2023/06/05 01:17:00;;;;;;;11.88;6.68;;;18.50;99.90;;;;;;4900373;29;20056;-77
2023/06/05 01:19:39;;;;;;;9.30;6.03;;;18.30;99.90;;;;;;4900098;29;20064;-74
2023/06/05 01:22:13;;;;;;;7.78;5.30;;;18.30;99.90;;;;;;4890142;29;20119;-76
2023/06/05 01:24:41;;;;;;;10.07;5.25;;;18.40;99.90;;;;;;4899414;29;20048;-77
2023/06/05 01:27:31;;;;;;;10.70;6.18;;;18.30;99.90;;;;;;4902918;29;20048;-75
2023/06/05 01:30:16;;;;;;;9.75;6.55;;;18.30;99.90;;;;;;4879444;29;20056;-73
2023/06/05 01:32:59;;;;;;;14.07;5.78;;;18.20;99.90;;;;;;4882882;29;20048;-74
2023/06/05 01:35:32;;;;;;;12.93;7.32;;;18.20;99.90;;;;;;4890199;29;20064;-72
2023/06/05 01:38:02;;;;;;;11.48;6.93;;;18.10;99.90;;;;;;4907843;29;20040;-75
2023/06/05 01:40:34;;;;;;;13.43;6.30;;;18.20;99.90;;;;;;4911175;29;20060;-73
2023/06/05 01:43:05;;;;;;;12.05;6.32;;;18.20;99.90;;;;;;4901916;29;20210;-75
2023/06/05 01:45:37;;;;;;;12.32;6.53;;;18.20;99.90;;;;;;4916111;29;20053;-78
2023/06/05 01:48:10;;;;;;;12.13;6.97;;;18.30;99.90;;;;;;4884574;29;20135;-73
2023/06/05 01:50:41;;;;;;;13.20;6.82;;;18.20;99.90;;;;;;4885215;29;20083;-75
2023/06/05 01:53:16;;;;;;;10.93;6.53;;;18.20;99.90;;;;;;4900417;29;20060;-76
2023/06/05 01:55:49;;;;;;;9.90;5.63;;;18.30;99.90;;;;;;4872343;29;20109;-76
2023/06/05 01:58:19;;;;;;;9.13;6.30;;;18.30;99.90;;;;;;4864100;29;20058;-76
2023/06/05 02:00:52;;;;;;;10.90;6.80;;;18.20;99.90;;;;;;4883594;29;20064;-77
2023/06/05 02:03:20;;;;;;;13.37;6.37;;;18.20;99.90;;;;;;4907949;29;20052;-77
2023/06/05 02:05:49;;;;;;;14.52;6.70;;;18.30;99.90;;;;;;4897265;29;20139;-77
2023/06/05 02:08:22;;;;;;;12.90;7.20;;;18.30;99.90;;;;;;4899961;29;20636;-78
2023/06/05 02:10:50;;;;;;;10.68;6.35;;;18.20;99.90;;;;;;4904508;29;20096;-76
2023/06/05 02:13:23;;;;;;;7.35;5.38;;;18.20;99.90;;;;;;4886368;29;20048;-78
2023/06/05 02:15:56;;;;;;;8.55;5.68;;;18.20;99.90;;;;;;4908637;29;20056;-77
2023/06/05 02:18:25;;;;;;;7.38;5.85;;;18.30;99.90;;;;;;4896739;29;20060;-77
2023/06/05 02:20:56;;;;;;;7.75;5.60;;;18.30;99.90;;;;;;4897847;29;20059;-77
2023/06/05 02:23:26;;;;;;;12.38;6.10;;;18.20;99.90;;;;;;4889063;29;20076;-77
2023/06/05 02:25:57;;;;;;;9.50;5.45;;;18.10;99.90;;;;;;4879639;29;20557;-78
2023/06/05 02:28:29;;;;;;;9.55;5.50;;;18.10;99.90;;;;;;4900964;29;20071;-73
2023/06/05 02:30:57;;;;;;;8.43;6.00;;;17.90;99.90;;;;;;4887658;29;20513;-76
2023/06/05 02:33:24;;;;;;;9.90;6.95;;;17.90;99.90;;;;;;4901404;29;20056;-78
2023/06/05 02:35:52;;;;;;;8.98;5.88;;;17.90;99.90;;;;;;4906310;29;20768;-76
2023/06/05 02:38:19;;;;;;;9.15;5.38;;;17.90;99.90;;;;;;4906736;29;20048;-78
2023/06/05 02:40:46;;;;;;;8.07;5.53;;;18.10;99.90;;;;;;4901253;29;20057;-74
2023/06/05 02:43:14;;;;;;;12.15;6.30;;;18.20;99.90;;;;;;4897099;29;20045;-74
2023/06/05 02:45:41;;;;;;;12.00;6.03;;;18.10;99.90;;;;;;4897419;29;20100;-75
2023/06/05 02:48:09;;;;;;;12.13;6.50;;;18.10;99.90;;;;;;4895883;29;20105;-75
2023/06/05 02:50:36;;;;;;;12.82;6.68;;;18.20;99.90;;;;;;4897452;29;20076;-75
2023/06/05 02:53:03;;;;;;;12.27;6.15;;;18.30;99.90;;;;;;4898259;29;20056;-73
2023/06/05 02:55:37;;;;;;;9.70;6.10;;;18.30;99.90;;;;;;4914583;29;20052;-72
2023/06/05 02:58:22;;;;;;;12.85;5.97;;;18.20;99.90;;;;;;4879357;29;20052;-75
2023/06/05 03:00:50;;;;;;;11.82;5.68;;;18.20;99.90;;;;;;4899074;29;20064;-76
2023/06/05 03:03:18;;;;;;;10.05;6.10;;;18.20;99.90;;;;;;4907267;29;20056;-75
2023/06/05 03:05:45;;;;;;;9.68;5.75;;;18.10;99.90;;;;;;4900797;29;20112;-76
2023/06/05 03:08:17;;;;;;;8.85;5.65;;;18.20;99.90;;;;;;4906491;29;20078;-75
2023/06/05 03:10:45;;;;;;;10.20;5.72;;;18.00;99.90;;;;;;4885145;29;20147;-75
2023/06/05 03:13:12;;;;;;;9.95;5.95;;;18.20;99.90;;;;;;4533726;29;20045;-74
2023/06/05 03:15:39;;;;;;;9.27;6.22;;;18.00;99.90;;;;;;4890795;29;20136;-78
2023/06/05 03:18:07;;;;;;;9.02;5.63;;;18.00;99.90;;;;;;4878761;29;20129;-72
2023/06/05 03:20:34;;;;;;;16.77;7.18;;;18.00;99.90;;;;;;4893515;29;20049;-76
2023/06/05 03:23:02;;;;;;;11.43;5.35;;;18.00;99.90;;;;;;4884867;29;20053;-75
2023/06/05 03:25:30;;;;;;;10.38;5.97;;;18.00;99.90;;;;;;4898131;29;20061;-76
2023/06/05 03:27:57;;;;;;;10.52;6.60;;;18.10;99.90;;;;;;4877488;29;20049;-76
2023/06/05 03:30:24;;;;;;;13.65;6.22;;;18.10;99.90;;;;;;4878552;29;20053;-76
2023/06/05 03:32:53;;;;;;;8.68;6.20;;;18.00;99.90;;;;;;4877947;29;20064;-74
2023/06/05 03:35:20;;;;;;;11.15;5.78;;;18.00;99.90;;;;;;4888679;29;20068;-75
2023/06/05 03:37:53;;;;;;;10.88;6.05;;;18.20;99.90;;;;;;4895217;29;20048;-73
2023/06/05 03:40:40;;;;;;;7.85;6.15;;;17.90;99.90;;;;;;4872572;29;20053;-75
2023/06/05 03:43:08;;;;;;;9.40;5.72;;;17.90;99.90;;;;;;4912382;29;20052;-76
2023/06/05 03:45:39;;;;;;;9.13;5.95;;;18.10;99.90;;;;;;4891060;29;20049;-76
2023/06/05 03:48:06;;;;;;;9.18;5.93;;;18.20;99.90;;;;;;4894269;29;20057;-73
2023/06/05 03:50:38;;;;;;;9.68;6.07;;;18.30;99.90;;;;;;4893785;29;20052;-76
2023/06/05 03:53:08;;;;;;;10.27;6.82;;;18.40;99.90;;;;;;4883076;29;20514;-77
2023/06/05 03:55:45;;;;;;;11.55;6.68;;;18.20;99.90;;;;;;4895359;29;20052;-76
2023/06/05 03:58:14;;;;;;;10.95;7.13;;;18.20;99.90;;;;;;4891051;29;20052;-76
2023/06/05 04:00:42;;;;;;;15.25;7.75;;;18.20;99.90;;;;;;4875812;29;20144;-77
2023/06/05 04:03:12;;;;;;;12.48;7.25;;;18.30;99.90;;;;;;4892753;29;20049;-78
2023/06/05 04:05:40;;;;;;;12.90;7.70;;;18.40;99.90;;;;;;4885398;29;20063;-76
2023/06/05 04:08:11;;;;;;;14.73;7.35;;;18.30;99.90;;;;;;4884365;29;20049;-78
2023/06/05 04:10:55;;;;;;;15.25;8.23;;;18.50;99.90;;;;;;4900474;29;20048;-77
2023/06/05 04:13:29;;;;;;;17.27;8.90;;;18.60;99.90;;;;;;4888891;29;20057;-77
2023/06/05 04:16:06;;;;;;;16.33;8.48;;;18.60;99.90;;;;;;4886752;29;20048;-74
2023/06/05 04:18:41;;;;;;;17.42;8.00;;;18.60;99.90;;;;;;4877865;29;20131;-74
2023/06/05 04:21:09;;;;;;;19.42;9.00;;;18.60;99.90;;;;;;4880289;29;20172;-74
2023/06/05 04:23:36;;;;;;;13.75;7.90;;;18.50;99.90;;;;;;4897501;29;20076;-75
2023/06/05 04:26:04;;;;;;;15.60;8.25;;;18.60;99.90;;;;;;4888269;29;20151;-75
2023/06/05 04:28:39;;;;;;;10.90;6.97;;;18.50;99.90;;;;;;4892731;29;20057;-75
2023/06/05 04:31:06;;;;;;;10.40;6.70;;;18.70;99.90;;;;;;4889274;29;20048;-73
2023/06/05 04:33:34;;;;;;;10.18;6.35;;;18.70;99.90;;;;;;4888644;29;20053;-77
2023/06/05 04:36:02;;;;;;;15.32;7.18;;;18.90;99.90;;;;;;4897352;29;20052;-77
2023/06/05 04:38:29;;;;;;;15.02;6.60;;;19.00;99.90;;;;;;4896536;29;20052;-74
2023/06/05 04:41:02;;;;;;;9.95;7.00;;;19.00;99.90;;;;;;4896158;29;20068;-76
2023/06/05 04:43:32;;;;;;;10.60;6.50;;;19.00;99.90;;;;;;4886806;29;20044;-77
2023/06/05 04:46:00;;;;;;;13.75;7.25;;;19.10;99.90;;;;;;4894464;29;20052;-75
2023/06/05 04:48:27;;;;;;;11.55;6.57;;;18.70;99.90;;;;;;4888112;29;20084;-79
2023/06/05 04:50:55;;;;;;;10.13;6.85;;;18.80;99.90;;;;;;4893946;29;20053;-76
2023/06/05 04:53:23;;;;;;;9.00;6.80;;;18.90;99.90;;;;;;4888907;29;20049;-77
2023/06/05 04:55:50;;;;;;;11.95;7.13;;;19.10;99.90;;;;;;4888889;29;20060;-76
2023/06/05 04:58:19;;;;;;;13.82;7.63;;;19.20;99.90;;;;;;4884696;29;20049;-75
2023/06/05 05:00:48;;;;;;;14.00;7.00;;;19.30;99.90;;;;;;4896795;29;20057;-79
2023/06/05 05:03:17;;;;;;;160.00;99.07;;;19.30;99.90;;;;;;4895623;29;20067;-84
2023/06/05 05:05:47;;;;;;;69.68;46.53;;;19.40;99.90;;;;;;4910782;29;20086;-80
2023/06/05 05:08:15;;;;;;;83.88;56.55;;;19.50;99.90;;;;;;4905376;29;20056;-73
2023/06/05 05:10:43;;;;;;;16.52;11.40;;;19.60;99.90;;;;;;4879356;29;20458;-83
2023/06/05 05:13:13;;;;;;;43.97;28.08;;;19.50;99.90;;;;;;4881548;29;20085;-81
2023/06/05 05:15:40;;;;;;;97.68;69.05;;;19.60;99.90;;;;;;4907100;29;20096;-75
2023/06/05 05:18:28;;;;;;;386.17;248.38;;;19.70;99.90;;;;;;4887665;29;20081;-72
2023/06/05 05:21:36;;;;;;;45.45;32.45;;;19.80;99.90;;;;;;4909427;29;20055;-72
2023/06/05 05:24:08;;;;;;;25.40;15.93;;;19.70;99.90;;;;;;4904489;29;20063;-76
2023/06/05 05:26:40;;;;;;;21.60;12.90;;;19.70;99.90;;;;;;4892462;29;20095;-75
2023/06/05 05:29:19;;;;;;;21.10;12.55;;;19.70;99.90;;;;;;4907455;29;20138;-70
2023/06/05 05:31:50;;;;;;;19.42;12.23;;;19.70;99.90;;;;;;4897534;29;20057;-81
2023/06/05 05:34:21;;;;;;;21.25;13.57;;;19.70;99.90;;;;;;4889126;29;20536;-74
2023/06/05 05:36:49;;;;;;;21.67;14.70;;;19.90;99.90;;;;;;4896582;29;20125;-73
2023/06/05 05:39:21;;;;;;;23.75;14.82;;;19.80;99.90;;;;;;4877891;29;20084;-76
2023/06/05 05:41:49;;;;;;;16.15;10.75;;;19.90;99.90;;;;;;4890841;29;20049;-76
2023/06/05 05:44:42;;;;;;;18.45;11.60;;;19.90;99.90;;;;;;4895422;29;20060;-88
2023/06/05 05:47:26;;;;;;;40.17;27.13;;;19.90;99.90;;;;;;4909465;29;20088;-83
2023/06/05 05:49:54;;;;;;;99.72;65.63;;;20.00;99.90;;;;;;4901574;29;20062;-81
2023/06/05 05:52:35;;;;;;;43.53;33.55;;;20.10;99.90;;;;;;4890441;29;20057;-80
2023/06/05 05:55:15;;;;;;;16.15;11.07;;;20.20;99.90;;;;;;4895620;29;20057;-87
2023/06/05 05:58:32;;;;;;;11.63;7.85;;;20.30;99.90;;;;;;4905978;29;20057;-86
2023/06/05 06:01:06;;;;;;;13.10;9.10;;;20.30;99.90;;;;;;4935520;29;20465;-90
2023/06/05 06:03:37;;;;;;;12.25;8.60;;;20.40;99.90;;;;;;4919845;29;20080;-87
2023/06/05 06:06:13;;;;;;;8.20;6.17;;;20.40;99.90;;;;;;4913694;29;20052;-71
2023/06/05 06:09:04;;;;;;;9.10;6.70;;;20.40;99.90;;;;;;4894147;29;20302;-82
2023/06/05 06:11:49;;;;;;;10.55;6.82;;;20.50;99.90;;;;;;4879129;29;20053;-79
2023/06/05 06:14:17;;;;;;;10.48;7.30;;;20.60;99.90;;;;;;4932414;29;20059;-84
2023/06/05 06:16:45;;;;;;;15.25;7.95;;;20.70;99.90;;;;;;4937328;29;20072;-84
2023/06/05 06:19:16;;;;;;;14.75;8.38;;;20.70;99.90;;;;;;4932855;29;20055;-88
2023/06/05 06:25:28;;;;;;;14.63;7.95;;;20.80;99.90;;;;;;4914161;29;20062;-87
2023/06/05 06:28:07;;;;;;;20.80;8.32;;;20.80;99.90;;;;;;4933020;29;20072;-81
2023/06/05 06:30:48;;;;;;;12.77;8.02;;;20.80;99.90;;;;;;4911484;29;20048;-81
2023/06/05 06:33:17;;;;;;;11.27;7.28;;;20.70;99.90;;;;;;4905930;29;20052;-79
2023/06/05 06:35:46;;;;;;;12.75;8.10;;;20.60;99.90;;;;;;4899284;29;20056;-88
2023/06/05 06:38:16;;;;;;;13.52;7.88;;;20.70;99.90;;;;;;4914608;29;20045;-87
2023/06/05 06:40:47;;;;;;;13.80;8.00;;;20.90;99.90;;;;;;4927352;29;20032;-81
2023/06/05 06:44:06;;;;;;;11.20;8.00;;;21.10;99.90;;;;;;4931502;29;20063;-74
2023/06/05 06:46:55;;;;;;;11.32;7.70;;;21.00;99.90;;;;;;4904512;29;20049;-74
2023/06/05 06:49:44;;;;;;;11.75;8.00;;;20.90;99.90;;;;;;4905787;29;20096;-74
2023/06/05 06:52:13;;;;;;;15.80;8.77;;;21.10;99.90;;;;;;4889430;29;20071;-81
2023/06/05 06:54:58;;;;;;;11.63;7.50;;;21.20;99.90;;;;;;4929931;29;20053;-89
2023/06/05 06:57:28;;;;;;;10.75;6.72;;;21.30;99.90;;;;;;4899861;29;20059;-78
2023/06/05 07:00:01;;;;;;;10.07;6.88;;;21.40;99.90;;;;;;4931549;29;20099;-87
2023/06/05 07:02:29;;;;;;;10.48;7.78;;;21.30;99.90;;;;;;4928885;29;20067;-74
2023/06/05 07:05:28;;;;;;;11.50;7.25;;;21.40;99.90;;;;;;4813578;29;20059;-77
2023/06/05 07:08:00;;;;;;;11.18;7.43;;;21.30;99.90;;;;;;4803885;29;20051;-77
2023/06/05 07:10:36;;;;;;;11.52;7.93;;;21.30;99.90;;;;;;4811043;29;20055;-82
2023/06/05 07:13:06;;;;;;;17.00;8.63;;;21.40;99.90;;;;;;4815008;29;20081;-80
2023/06/05 07:15:34;;;;;;;11.55;7.78;;;21.40;99.90;;;;;;4819947;29;20039;-77
2023/06/05 07:18:40;;;;;;;11.75;7.25;;;21.50;99.90;;;;;;4829208;23;20051;-78
2023/06/05 07:21:16;;;;;;;11.30;7.63;;;21.50;99.90;;;;;;4859510;29;20050;-78
2023/06/05 07:23:54;;;;;;;13.60;7.32;;;21.50;99.90;;;;;;4857237;29;20069;-74
2023/06/05 07:26:36;;;;;;;10.95;6.80;;;21.60;99.90;;;;;;4868369;29;20045;-84
2023/06/05 07:29:03;;;;;;;10.95;6.82;;;21.60;99.90;;;;;;4870148;29;20074;-85
2023/06/05 07:31:31;;;;;;;12.70;7.38;;;21.80;99.90;;;;;;4883472;29;20056;-81
2023/06/05 07:33:59;;;;;;;10.20;7.32;;;21.80;99.90;;;;;;4876629;29;20113;-85
2023/06/05 07:36:27;;;;;;;11.95;6.45;;;21.80;99.90;;;;;;4883560;29;20072;-86
2023/06/05 07:39:06;;;;;;;9.48;5.78;;;22.10;99.90;;;;;;4842199;29;20084;-73
2023/06/05 07:41:36;;;;;;;;;;;21.90;99.90;;;;;;4870226;29;20077;-78
2023/06/05 07:44:04;;;;;;;7.72;5.90;;;22.00;99.90;;;;;;4890641;29;19924;-77
2023/06/05 07:46:33;;;;;;;10.77;5.32;;;22.20;99.90;;;;;;4870185;29;20053;-81
2023/06/05 07:49:01;;;;;;;7.10;5.67;;;22.20;99.90;;;;;;4860596;29;20058;-84
2023/06/05 07:51:29;;;;;;;8.95;5.82;;;22.10;99.90;;;;;;4872231;29;20079;-77
2023/06/05 07:53:57;;;;;;;8.98;6.07;;;22.20;99.90;;;;;;4849146;29;20066;-74
2023/06/05 07:56:48;;;;;;;8.73;5.68;;;22.50;99.90;;;;;;4866585;29;20046;-74
2023/06/05 07:59:27;;;;;;;10.13;6.15;;;22.40;99.90;;;;;;4848882;29;20125;-76
2023/06/05 08:02:02;;;;;;;8.15;5.70;;;22.40;99.90;;;;;;4874573;29;20111;-72
2023/06/05 08:04:38;;;;;;;9.27;5.95;;;22.40;99.90;;;;;;4845009;29;20082;-73
2023/06/05 08:07:07;;;;;;;10.40;7.18;;;22.50;99.90;;;;;;4846330;29;20085;-75
2023/06/05 08:09:40;;;;;;;8.52;6.45;;;22.60;99.90;;;;;;4837444;29;20079;-73
2023/06/05 08:12:30;;;;;;;10.90;5.95;;;22.70;99.90;;;;;;4844465;29;20141;-75
2023/06/05 08:15:11;;;;;;;9.90;6.47;;;22.60;99.90;;;;;;4868642;29;20072;-72
2023/06/05 08:17:41;;;;;;;11.05;7.00;;;22.60;99.90;;;;;;4858245;29;20138;-73
2023/06/05 08:20:20;;;;;;;10.45;6.25;;;22.70;99.90;;;;;;4844815;29;20545;-74
2023/06/05 08:22:57;;;;;;;9.10;6.45;;;22.80;99.90;;;;;;4854319;29;20064;-73
2023/06/05 08:25:32;;;;;;;8.38;6.35;;;22.90;99.90;;;;;;4829546;29;20499;-73
2023/06/05 08:28:03;;;;;;;8.57;6.60;;;23.10;99.90;;;;;;4845094;29;20392;-73
2023/06/05 08:30:36;;;;;;;9.48;6.40;;;23.20;99.90;;;;;;4846865;29;20069;-75
2023/06/05 08:33:23;;;;;;;14.68;7.78;;;23.20;99.90;;;;;;4866057;29;20050;-74
2023/06/05 08:35:53;;;;;;;8.88;6.50;;;23.20;99.90;;;;;;4849944;29;20058;-72
2023/06/05 08:38:25;;;;;;;10.00;6.97;;;23.20;99.90;;;;;;4849037;29;20046;-73
2023/06/05 08:41:11;;;;;;;9.23;6.78;;;23.10;99.90;;;;;;4845395;29;20128;-73
2023/06/05 08:47:31;;;;;;;9.70;7.25;;;23.10;99.90;;;;;;4848190;29;20101;-73
2023/06/05 08:50:06;;;;;;;8.77;6.60;;;23.20;99.90;;;;;;4835147;29;20058;-74
2023/06/05 08:52:38;;;;;;;9.20;6.88;;;23.20;99.90;;;;;;4853412;29;20048;-73
2023/06/05 08:55:19;;;;;;;9.10;6.47;;;23.40;99.90;;;;;;4843681;29;20467;-73
2023/06/05 08:58:05;;;;;;;;;;;23.60;99.90;;;;;;4833363;29;20062;-75
2023/06/05 09:00:35;;;;;;;12.93;7.50;;;23.70;99.90;;;;;;4840024;29;19963;-75
2023/06/05 09:03:03;;;;;;;8.18;6.05;;;23.70;99.90;;;;;;4849678;29;20058;-74
2023/06/05 09:05:36;;;;;;;9.07;7.38;;;23.80;99.90;;;;;;4834083;29;20077;-75
2023/06/05 09:08:08;;;;;;;8.90;6.80;;;23.70;99.90;;;;;;4846929;29;20058;-76
2023/06/05 09:11:30;;;;;;;8.73;6.57;;;23.60;99.90;;;;;;4891096;23;20165;-76
2023/06/05 09:14:04;;;;;;;9.27;7.20;;;23.80;99.90;;;;;;4925485;29;20043;-80
2023/06/05 09:16:37;;;;;;;12.45;7.40;;;23.80;99.90;;;;;;4901759;29;20080;-73
2023/06/05 09:19:06;;;;;;;9.60;7.15;;;23.90;99.90;;;;;;4879117;29;20084;-74
2023/06/05 09:21:37;;;;;;;10.55;6.93;;;24.10;99.90;;;;;;4926104;29;20048;-74
2023/06/05 09:24:21;;;;;;;10.07;6.75;;;24.10;99.90;;;;;;4890084;29;20049;-77
2023/06/05 09:27:12;;;;;;;9.45;6.63;;;24.30;99.90;;;;;;4899908;29;20084;-73
2023/06/05 09:29:45;;;;;;;10.05;7.07;;;24.30;99.90;;;;;;4910278;29;20061;-77
2023/06/05 09:32:20;;;;;;;13.30;7.25;;;24.60;99.90;;;;;;4922904;29;20078;-78
2023/06/05 09:35:01;;;;;;;12.55;7.65;;;24.70;99.90;;;;;;4921158;29;20048;-77
2023/06/05 09:37:45;;;;;;;12.48;7.82;;;24.70;99.90;;;;;;4906566;29;20064;-75
2023/06/05 09:40:40;;;;;;;9.60;7.30;;;24.70;99.90;;;;;;4912991;29;20059;-75
2023/06/05 09:43:32;;;;;;;9.15;7.38;;;24.70;99.90;;;;;;4893517;29;20124;-83
2023/06/05 09:46:49;;;;;;;11.02;7.30;;;24.90;99.90;;;;;;4891004;29;20124;-74
2023/06/05 09:49:19;;;;;;;13.35;7.38;;;25.00;99.90;;;;;;4902418;29;20074;-73
2023/06/05 09:51:50;;;;;;;12.77;7.93;;;25.30;99.90;;;;;;4894770;29;20044;-79
2023/06/05 09:54:20;;;;;;;15.52;8.15;;;24.90;99.90;;;;;;4920250;29;20049;-76
2023/06/05 09:56:59;;;;;;;9.10;7.30;;;25.00;99.90;;;;;;4910014;29;20556;-77
2023/06/05 09:59:32;;;;;;;13.98;7.70;;;25.00;99.90;;;;;;4919450;29;20053;-78
2023/06/05 10:02:06;;;;;;;16.02;8.57;;;25.10;99.90;;;;;;4891193;29;20108;-76
2023/06/05 10:05:06;;;;;;;10.77;7.63;;;24.90;99.90;;;;;;4903163;29;20055;-76
2023/06/05 10:07:44;;;;;;;12.45;8.38;;;24.80;99.90;;;;;;4882451;29;20076;-76
2023/06/05 10:10:20;;;;;;;11.70;8.02;;;25.00;99.90;;;;;;4909648;29;20092;-75
2023/06/05 10:12:58;;;;;;;10.00;7.30;;;25.40;99.90;;;;;;4908273;29;20079;-74
2023/06/05 10:15:41;;;;;;;12.10;8.07;;;25.40;99.90;;;;;;4881300;29;20048;-75
2023/06/05 10:18:12;;;;;;;13.35;7.88;;;25.30;99.90;;;;;;4908661;29;20552;-76
2023/06/05 10:21:00;;;;;;;11.50;8.45;;;25.40;99.90;;;;;;4891041;29;20515;-75
2023/06/05 10:23:55;;;;;;;10.13;8.88;;;25.40;99.90;;;;;;4917655;29;20051;-79
2023/06/05 10:26:38;;;;;;;10.38;8.15;;;25.30;99.90;;;;;;4917508;29;20053;-75
2023/06/05 10:29:18;;;;;;;11.43;9.32;;;25.30;99.90;;;;;;4881855;29;20108;-77
2023/06/05 10:32:08;;;;;;;10.70;8.85;;;25.60;99.90;;;;;;4903449;29;20104;-74
2023/06/05 10:35:21;;;;;;;12.98;9.30;;;25.80;99.90;;;;;;4892042;29;20082;-77
2023/06/05 10:38:10;;;;;;;12.45;8.73;;;25.80;99.90;;;;;;4834119;29;20056;-78
2023/06/05 10:40:38;;;;;;;12.35;9.63;;;25.90;99.90;;;;;;4904368;29;20127;-76
2023/06/05 10:43:56;;;;;;;13.18;9.55;;;26.00;99.90;;;;;;4890939;29;20040;-73
2023/06/05 10:46:38;;;;;;;13.38;10.30;;;26.20;99.90;;;;;;4894069;29;20053;-77
2023/06/05 10:49:22;;;;;;;14.52;10.02;;;25.80;99.90;;;;;;4920258;29;20056;-74
2023/06/05 10:52:43;;;;;;;12.57;9.90;;;26.20;99.70;;;;;;4903408;29;20066;-76
2023/06/05 10:55:22;;;;;;;14.35;9.93;;;26.50;99.90;;;;;;4892504;29;20055;-75
2023/06/05 10:58:23;;;;;;;16.38;10.75;;;26.60;99.70;;;;;;4912745;29;20044;-78
2023/06/05 11:01:19;;;;;;;11.85;9.77;;;26.60;99.80;;;;;;4920636;29;20048;-77
2023/06/05 11:04:01;;;;;;;12.85;9.88;;;26.90;99.00;;;;;;4920001;29;20056;-75
2023/06/05 11:06:31;;;;;;;13.82;10.00;;;26.70;98.60;;;;;;4906437;29;20496;-79
2023/06/05 11:09:13;;;;;;;11.65;10.02;;;26.90;98.90;;;;;;4924783;29;20462;-73
2023/06/05 11:12:01;;;;;;;11.60;9.55;;;26.90;98.00;;;;;;4909582;29;20059;-74
2023/06/05 11:14:54;;;;;;;12.00;8.95;;;27.00;98.70;;;;;;4918210;29;20157;-74
2023/06/05 11:17:28;;;;;;;10.50;9.23;;;27.10;98.60;;;;;;4891106;29;20056;-80
2023/06/05 11:19:55;;;;;;;11.15;9.60;;;27.30;98.50;;;;;;4918796;29;20060;-80
2023/06/05 11:22:23;;;;;;;12.50;9.38;;;27.40;97.80;;;;;;4915222;29;20128;-74
2023/06/05 11:25:16;;;;;;;10.27;9.15;;;27.40;97.70;;;;;;4906239;29;20464;-74
2023/06/05 11:27:47;;;;;;;11.93;9.13;;;27.50;97.20;;;;;;4884749;29;20108;-74
2023/06/05 11:30:20;;;;;;;11.48;8.35;;;27.50;97.40;;;;;;4882210;29;20507;-75
2023/06/05 11:33:13;;;;;;;12.90;9.65;;;27.40;97.30;;;;;;4896869;29;20463;-74
2023/06/05 11:35:44;;;;;;;14.18;8.75;;;27.20;97.00;;;;;;4906694;29;20088;-73
2023/06/05 11:38:21;;;;;;;10.35;8.48;;;27.40;97.10;;;;;;4891417;29;20049;-73
2023/06/05 11:40:52;;;;;;;11.43;8.57;;;27.40;96.60;;;;;;4900272;29;20082;-76
2023/06/05 11:43:21;;;;;;;10.85;8.55;;;27.60;96.50;;;;;;4892594;29;20477;-77
2023/06/05 11:45:56;;;;;;;11.38;8.63;;;27.50;96.80;;;;;;4890994;29;20485;-75
2023/06/05 11:48:25;;;;;;;14.05;8.90;;;27.40;96.60;;;;;;4911275;29;20071;-73
2023/06/05 11:51:03;;;;;;;12.52;8.55;;;27.40;96.40;;;;;;4908836;29;20041;-78
2023/06/05 11:53:32;;;;;;;11.03;8.40;;;27.60;96.50;;;;;;4911664;29;20081;-75
2023/06/05 11:56:06;;;;;;;11.88;8.02;;;27.40;96.00;;;;;;4905149;29;20292;-73
2023/06/05 11:58:39;;;;;;;16.02;8.80;;;27.20;96.30;;;;;;4890657;29;20070;-73
2023/06/05 12:01:22;;;;;;;9.50;8.40;;;26.90;96.80;;;;;;4910087;29;20056;-74
2023/06/05 12:04:32;;;;;;;11.85;7.85;;;26.90;96.40;;;;;;4897521;29;20048;-75
2023/06/05 12:07:02;;;;;;;10.07;7.63;;;27.30;96.20;;;;;;4872852;29;20136;-78
2023/06/05 12:09:30;;;;;;;9.95;7.93;;;27.80;95.60;;;;;;4920677;29;20048;-75
2023/06/05 12:12:10;;;;;;;9.35;7.22;;;27.90;94.70;;;;;;4903460;29;20061;-74
2023/06/05 12:14:37;;;;;;;13.82;8.32;;;28.30;94.80;;;;;;4889943;29;20053;-80
2023/06/05 12:17:12;;;;;;;8.73;7.15;;;28.30;94.00;;;;;;4889274;29;20148;-77
2023/06/05 12:19:40;;;;;;;9.80;7.15;;;28.20;93.80;;;;;;4898955;29;20056;-73
2023/06/05 12:22:09;;;;;;;10.27;7.40;;;28.40;93.20;;;;;;4894044;29;20064;-76
2023/06/05 12:24:37;;;;;;;10.90;8.00;;;28.60;92.20;;;;;;4883474;29;20060;-72
2023/06/05 12:27:05;;;;;;;10.93;7.30;;;28.40;91.80;;;;;;4867494;29;20291;-75
2023/06/05 12:29:40;;;;;;;9.52;6.90;;;28.40;92.30;;;;;;4901061;29;20409;-79
2023/06/05 12:32:24;;;;;;;10.10;6.97;;;28.70;91.60;;;;;;4894064;29;20056;-79
2023/06/05 12:34:55;;;;;;;10.02;6.70;;;28.60;91.10;;;;;;4895828;29;20450;-83
2023/06/05 12:37:37;;;;;;;9.32;7.22;;;28.40;90.70;;;;;;4917343;29;20094;-81
2023/06/05 12:40:10;;;;;;;9.15;7.13;;;27.80;91.10;;;;;;4889520;29;20082;-76
2023/06/05 12:42:40;;;;;;;9.95;6.80;;;27.60;91.70;;;;;;4892965;29;20092;-77
2023/06/05 12:45:08;;;;;;;11.05;7.07;;;27.40;92.00;;;;;;4883955;29;20057;-75
2023/06/05 12:47:40;;;;;;;10.40;7.80;;;27.80;91.50;;;;;;4915320;29;20056;-76
2023/06/05 12:50:11;;;;;;;11.40;7.32;;;28.30;91.30;;;;;;4883863;29;20057;-77
2023/06/05 12:53:01;;;;;;;9.05;7.25;;;28.60;90.60;;;;;;4887997;29;20084;-71
2023/06/05 12:55:34;;;;;;;10.45;7.38;;;28.60;90.40;;;;;;4900304;29;20124;-79
2023/06/05 12:58:03;;;;;;;9.73;7.63;;;28.10;90.20;;;;;;4887797;29;20383;-73
2023/06/05 13:00:31;;;;;;;9.20;7.22;;;28.10;90.60;;;;;;4887513;29;20057;-76
2023/06/05 13:02:59;;;;;;;8.50;7.43;;;28.00;89.90;;;;;;4894642;29;20056;-74
2023/06/05 13:05:26;;;;;;;10.70;7.85;;;27.90;90.20;;;;;;4894291;29;20061;-72
2023/06/05 13:07:54;;;;;;;9.98;7.78;;;28.30;90.20;;;;;;4888133;29;20049;-74
2023/06/05 13:10:23;;;;;;;9.68;7.30;;;28.10;90.10;;;;;;4897678;29;20175;-75
2023/06/05 13:12:52;;;;;;;10.77;6.97;;;27.70;90.00;;;;;;4898392;29;20049;-77
2023/06/05 13:15:20;;;;;;;9.70;8.02;;;27.30;90.90;;;;;;4901559;29;20490;-74
2023/06/05 13:17:49;;;;;;;10.50;7.75;;;27.20;91.50;;;;;;4897250;29;20049;-74
2023/06/05 13:20:17;;;;;;;11.68;8.10;;;27.10;91.20;;;;;;4890652;29;20061;-72
2023/06/05 13:22:46;;;;;;;9.05;6.93;;;26.70;91.60;;;;;;4888565;29;20056;-74
2023/06/05 13:25:14;;;;;;;9.98;7.65;;;26.40;91.90;;;;;;4890299;29;20518;-72
2023/06/05 13:27:44;;;;;;;8.82;7.15;;;26.40;92.20;;;;;;4885177;29;20702;-73
2023/06/05 13:30:11;;;;;;;14.95;7.53;;;26.40;92.50;;;;;;4905526;29;20053;-77
2023/06/05 13:32:39;;;;;;;8.35;6.78;;;26.20;93.00;;;;;;4899866;29;20471;-73